sensor_id;sensor_type;location;lat;lon;timestamp;temperature;humidity
28823;DHT22;15961;54.678;9.110;2022-12-18T00:01:57;-4.60;99.90
28823;DHT22;15961;54.678;9.110;2022-12-18T00:04:24;-4.70;99.90
28823;DHT22;15961;54.678;9.110;2022-12-18T00:06:51;-4.80;99.90
28823;DHT22;15961;54.678;9.110;2022-12-18T00:09:17;-4.70;99.90
28823;DHT22;15961;54.678;9.110;2022-12-18T00:11:42;-4.80;99.90
28823;DHT22;15961;54.678;9.110;2022-12-18T00:14:10;-4.80;99.90
28823;DHT22;15961;54.678;9.110;2022-12-18T00:16:36;-4.90;99.90
28823;DHT22;15961;54.678;9.110;2022-12-18T00:19:03;-5.00;99.90
28823;DHT22;15961;54.678;9.110;2022-12-18T00:21:30;-4.90;99.90
28823;DHT22;15961;54.678;9.110;2022-12-18T00:23:57;-5.00;99.90
28823;DHT22;15961;54.678;9.110;2022-12-18T00:26:28;-4.90;99.90
28823;DHT22;15961;54.678;9.110;2022-12-18T00:28:54;-4.90;99.90
28823;DHT22;15961;54.678;9.110;2022-12-18T00:31:24;-5.00;99.90
28823;DHT22;15961;54.678;9.110;2022-12-18T00:33:50;-5.10;99.90
28823;DHT22;15961;54.678;9.110;2022-12-18T00:36:18;-5.20;99.90
28823;DHT22;15961;54.678;9.110;2022-12-18T00:38:45;-5.30;99.90
28823;DHT22;15961;54.678;9.110;2022-12-18T00:41:12;-5.30;99.90
28823;DHT22;15961;54.678;9.110;2022-12-18T00:43:38;-5.40;99.90
28823;DHT22;15961;54.678;9.110;2022-12-18T00:46:04;-5.50;99.90
28823;DHT22;15961;54.678;9.110;2022-12-18T00:48:30;-5.50;99.90
28823;DHT22;15961;54.678;9.110;2022-12-18T00:50:56;-5.50;99.90
28823;DHT22;15961;54.678;9.110;2022-12-18T00:53:21;-5.50;99.90
28823;DHT22;15961;54.678;9.110;2022-12-18T00:55:47;-5.50;99.90
28823;DHT22;15961;54.678;9.110;2022-12-18T00:58:14;-5.50;99.90
28823;DHT22;15961;54.678;9.110;2022-12-18T01:00:40;-5.50;99.90
28823;DHT22;15961;54.678;9.110;2022-12-18T01:03:06;-5.40;99.90
28823;DHT22;15961;54.678;9.110;2022-12-18T01:05:32;-5.40;99.90
28823;DHT22;15961;54.678;9.110;2022-12-18T01:07:58;-5.50;99.90
28823;DHT22;15961;54.678;9.110;2022-12-18T01:10:24;-5.50;99.90
28823;DHT22;15961;54.678;9.110;2022-12-18T01:12:49;-5.60;99.90
28823;DHT22;15961;54.678;9.110;2022-12-18T01:15:16;-5.70;99.90
28823;DHT22;15961;54.678;9.110;2022-12-18T01:17:42;-5.80;99.90
28823;DHT22;15961;54.678;9.110;2022-12-18T01:20:09;-5.90;99.90
28823;DHT22;15961;54.678;9.110;2022-12-18T01:22:36;-5.90;99.90
28823;DHT22;15961;54.678;9.110;2022-12-18T01:25:02;-5.90;99.90
28823;DHT22;15961;54.678;9.110;2022-12-18T01:27:27;-5.90;99.90
28823;DHT22;15961;54.678;9.110;2022-12-18T01:29:53;-5.90;99.90
28823;DHT22;15961;54.678;9.110;2022-12-18T01:32:19;-5.90;99.90
28823;DHT22;15961;54.678;9.110;2022-12-18T01:34:45;-6.00;99.90
28823;DHT22;15961;54.678;9.110;2022-12-18T01:37:10;-6.00;99.90
28823;DHT22;15961;54.678;9.110;2022-12-18T01:39:36;-5.90;99.90
28823;DHT22;15961;54.678;9.110;2022-12-18T01:42:11;-5.80;99.90
28823;DHT22;15961;54.678;9.110;2022-12-18T01:44:57;-5.70;99.90
28823;DHT22;15961;54.678;9.110;2022-12-18T01:50:19;-5.60;99.90
28823;DHT22;15961;54.678;9.110;2022-12-18T01:52:54;-5.50;99.90
28823;DHT22;15961;54.678;9.110;2022-12-18T01:55:24;-5.40;99.90
28823;DHT22;15961;54.678;9.110;2022-12-18T01:57:53;-5.30;99.90
28823;DHT22;15961;54.678;9.110;2022-12-18T02:00:21;-5.30;99.90
28823;DHT22;15961;54.678;9.110;2022-12-18T02:02:47;-5.10;99.90
28823;DHT22;15961;54.678;9.110;2022-12-18T02:05:17;-5.20;99.90
28823;DHT22;15961;54.678;9.110;2022-12-18T02:08:06;-5.20;99.90
28823;DHT22;15961;54.678;9.110;2022-12-18T02:10:46;-5.30;99.90
28823;DHT22;15961;54.678;9.110;2022-12-18T02:13:36;-5.30;99.90
28823;DHT22;15961;54.678;9.110;2022-12-18T02:18:47;-5.40;99.90
28823;DHT22;15961;54.678;9.110;2022-12-18T02:21:38;-5.30;99.90
28823;DHT22;15961;54.678;9.110;2022-12-18T02:24:16;-5.40;99.90
28823;DHT22;15961;54.678;9.110;2022-12-18T02:26:50;-5.50;99.90
28823;DHT22;15961;54.678;9.110;2022-12-18T02:29:24;-5.50;99.90
28823;DHT22;15961;54.678;9.110;2022-12-18T02:31:56;-5.60;99.90
28823;DHT22;15961;54.678;9.110;2022-12-18T02:34:31;-5.60;99.90
28823;DHT22;15961;54.678;9.110;2022-12-18T02:37:01;-5.60;99.90
28823;DHT22;15961;54.678;9.110;2022-12-18T02:39:28;-5.70;99.90
28823;DHT22;15961;54.678;9.110;2022-12-18T02:41:54;-5.60;99.90
28823;DHT22;15961;54.678;9.110;2022-12-18T02:44:20;-5.70;99.90
28823;DHT22;15961;54.678;9.110;2022-12-18T02:46:49;-5.80;99.90
28823;DHT22;15961;54.678;9.110;2022-12-18T02:49:36;-5.80;99.90
28823;DHT22;15961;54.678;9.110;2022-12-18T02:55:04;-6.00;99.90
28823;DHT22;15961;54.678;9.110;2022-12-18T03:00:23;-6.00;99.90
28823;DHT22;15961;54.678;9.110;2022-12-18T03:05:33;-6.00;99.90
28823;DHT22;15961;54.678;9.110;2022-12-18T03:08:11;-6.00;99.90
28823;DHT22;15961;54.678;9.110;2022-12-18T03:10:42;-6.00;99.90
28823;DHT22;15961;54.678;9.110;2022-12-18T03:13:14;-6.00;99.90
28823;DHT22;15961;54.678;9.110;2022-12-18T03:15:46;-6.00;99.90
28823;DHT22;15961;54.678;9.110;2022-12-18T03:18:17;-6.10;99.90
28823;DHT22;15961;54.678;9.110;2022-12-18T03:20:44;-6.10;99.90
28823;DHT22;15961;54.678;9.110;2022-12-18T03:23:15;-6.10;99.90
28823;DHT22;15961;54.678;9.110;2022-12-18T03:25:44;-6.10;99.90
28823;DHT22;15961;54.678;9.110;2022-12-18T03:28:18;-6.20;99.90
28823;DHT22;15961;54.678;9.110;2022-12-18T03:30:47;-6.20;99.90
28823;DHT22;15961;54.678;9.110;2022-12-18T03:33:24;-6.20;99.90
28823;DHT22;15961;54.678;9.110;2022-12-18T03:35:50;-6.20;99.90
28823;DHT22;15961;54.678;9.110;2022-12-18T03:38:16;-6.30;99.90
28823;DHT22;15961;54.678;9.110;2022-12-18T03:40:50;-6.20;99.90
28823;DHT22;15961;54.678;9.110;2022-12-18T03:43:28;-6.20;99.90
28823;DHT22;15961;54.678;9.110;2022-12-18T03:46:08;-6.30;99.90
28823;DHT22;15961;54.678;9.110;2022-12-18T03:48:43;-6.30;99.90
28823;DHT22;15961;54.678;9.110;2022-12-18T03:51:39;-6.30;99.90
28823;DHT22;15961;54.678;9.110;2022-12-18T03:54:08;-6.40;99.90
28823;DHT22;15961;54.678;9.110;2022-12-18T03:56:48;-6.40;99.90
28823;DHT22;15961;54.678;9.110;2022-12-18T03:59:17;-6.40;99.90
28823;DHT22;15961;54.678;9.110;2022-12-18T04:01:49;-6.50;99.90
28823;DHT22;15961;54.678;9.110;2022-12-18T04:04:17;-6.50;99.90
28823;DHT22;15961;54.678;9.110;2022-12-18T04:06:46;-6.50;99.90
28823;DHT22;15961;54.678;9.110;2022-12-18T04:09:13;-6.50;99.90
28823;DHT22;15961;54.678;9.110;2022-12-18T04:11:40;-6.50;99.90
28823;DHT22;15961;54.678;9.110;2022-12-18T04:14:06;-6.50;99.90
28823;DHT22;15961;54.678;9.110;2022-12-18T04:16:32;-6.50;99.90
28823;DHT22;15961;54.678;9.110;2022-12-18T04:18:57;-6.60;99.90
28823;DHT22;15961;54.678;9.110;2022-12-18T04:21:23;-6.60;99.90
28823;DHT22;15961;54.678;9.110;2022-12-18T04:23:49;-6.70;99.90
28823;DHT22;15961;54.678;9.110;2022-12-18T04:26:14;-6.60;99.90
28823;DHT22;15961;54.678;9.110;2022-12-18T04:28:40;-6.70;99.90
28823;DHT22;15961;54.678;9.110;2022-12-18T04:31:05;-6.60;99.90
28823;DHT22;15961;54.678;9.110;2022-12-18T04:33:31;-6.50;99.90
28823;DHT22;15961;54.678;9.110;2022-12-18T04:35:56;-6.50;99.90
28823;DHT22;15961;54.678;9.110;2022-12-18T04:38:22;-6.50;99.90
28823;DHT22;15961;54.678;9.110;2022-12-18T04:40:47;-6.50;99.90
28823;DHT22;15961;54.678;9.110;2022-12-18T04:43:13;-6.50;99.90
28823;DHT22;15961;54.678;9.110;2022-12-18T04:45:38;-6.50;99.90
28823;DHT22;15961;54.678;9.110;2022-12-18T04:48:04;-6.50;99.90
28823;DHT22;15961;54.678;9.110;2022-12-18T04:50:30;-6.50;99.90
28823;DHT22;15961;54.678;9.110;2022-12-18T04:52:56;-6.50;99.90
28823;DHT22;15961;54.678;9.110;2022-12-18T04:55:22;-6.60;99.90
28823;DHT22;15961;54.678;9.110;2022-12-18T04:57:47;-6.60;99.90
28823;DHT22;15961;54.678;9.110;2022-12-18T05:00:13;-6.70;99.90
28823;DHT22;15961;54.678;9.110;2022-12-18T05:02:39;-6.70;99.90
28823;DHT22;15961;54.678;9.110;2022-12-18T05:05:05;-6.70;99.90
28823;DHT22;15961;54.678;9.110;2022-12-18T05:07:30;-6.70;99.90
28823;DHT22;15961;54.678;9.110;2022-12-18T05:09:56;-6.70;99.90
28823;DHT22;15961;54.678;9.110;2022-12-18T05:12:25;-6.60;99.90
28823;DHT22;15961;54.678;9.110;2022-12-18T05:14:50;-6.60;99.90
28823;DHT22;15961;54.678;9.110;2022-12-18T05:17:16;-6.70;99.90
28823;DHT22;15961;54.678;9.110;2022-12-18T05:19:42;-6.60;99.90
28823;DHT22;15961;54.678;9.110;2022-12-18T05:22:08;-6.60;99.90
28823;DHT22;15961;54.678;9.110;2022-12-18T05:24:33;-6.50;99.90
28823;DHT22;15961;54.678;9.110;2022-12-18T05:26:59;-6.40;99.90
28823;DHT22;15961;54.678;9.110;2022-12-18T05:29:25;-6.30;99.90
28823;DHT22;15961;54.678;9.110;2022-12-18T05:31:50;-6.10;99.90
28823;DHT22;15961;54.678;9.110;2022-12-18T05:34:16;-6.00;99.90
28823;DHT22;15961;54.678;9.110;2022-12-18T05:36:41;-5.90;99.90
28823;DHT22;15961;54.678;9.110;2022-12-18T05:39:07;-5.90;99.90
28823;DHT22;15961;54.678;9.110;2022-12-18T05:41:33;-5.80;99.90
28823;DHT22;15961;54.678;9.110;2022-12-18T05:43:59;-5.80;99.90
28823;DHT22;15961;54.678;9.110;2022-12-18T05:46:25;-5.80;99.90
28823;DHT22;15961;54.678;9.110;2022-12-18T05:48:51;-5.70;99.90
28823;DHT22;15961;54.678;9.110;2022-12-18T05:51:18;-5.70;99.90
28823;DHT22;15961;54.678;9.110;2022-12-18T05:53:45;-5.70;99.90
28823;DHT22;15961;54.678;9.110;2022-12-18T05:56:13;-5.70;99.90
28823;DHT22;15961;54.678;9.110;2022-12-18T05:58:40;-5.70;99.90
28823;DHT22;15961;54.678;9.110;2022-12-18T06:01:12;-5.60;99.90
28823;DHT22;15961;54.678;9.110;2022-12-18T06:03:38;-5.60;99.90
28823;DHT22;15961;54.678;9.110;2022-12-18T06:06:12;-5.50;99.90
28823;DHT22;15961;54.678;9.110;2022-12-18T06:08:37;-5.50;99.90
28823;DHT22;15961;54.678;9.110;2022-12-18T06:11:03;-5.40;99.90
28823;DHT22;15961;54.678;9.110;2022-12-18T06:13:29;-5.40;99.90
28823;DHT22;15961;54.678;9.110;2022-12-18T06:15:54;-5.40;99.90
28823;DHT22;15961;54.678;9.110;2022-12-18T06:18:20;-5.40;99.90
28823;DHT22;15961;54.678;9.110;2022-12-18T06:20:54;-5.30;99.90
28823;DHT22;15961;54.678;9.110;2022-12-18T06:23:20;-5.40;99.90
28823;DHT22;15961;54.678;9.110;2022-12-18T06:25:45;-5.40;99.90
28823;DHT22;15961;54.678;9.110;2022-12-18T06:28:11;-5.40;99.90
28823;DHT22;15961;54.678;9.110;2022-12-18T06:30:36;-5.40;99.90
28823;DHT22;15961;54.678;9.110;2022-12-18T06:33:02;-5.40;99.90
28823;DHT22;15961;54.678;9.110;2022-12-18T06:35:27;-5.40;99.90
28823;DHT22;15961;54.678;9.110;2022-12-18T06:37:53;-5.40;99.90
28823;DHT22;15961;54.678;9.110;2022-12-18T06:40:19;-5.40;99.90
28823;DHT22;15961;54.678;9.110;2022-12-18T06:42:44;-5.30;99.90
28823;DHT22;15961;54.678;9.110;2022-12-18T06:45:10;-5.30;99.90
28823;DHT22;15961;54.678;9.110;2022-12-18T06:47:36;-5.20;99.90
28823;DHT22;15961;54.678;9.110;2022-12-18T06:50:02;-5.20;99.90
28823;DHT22;15961;54.678;9.110;2022-12-18T06:52:28;-5.20;99.90
28823;DHT22;15961;54.678;9.110;2022-12-18T06:54:53;-5.30;99.90
28823;DHT22;15961;54.678;9.110;2022-12-18T06:57:19;-5.40;99.90
28823;DHT22;15961;54.678;9.110;2022-12-18T06:59:44;-5.50;99.90
28823;DHT22;15961;54.678;9.110;2022-12-18T07:02:11;-5.60;99.90
28823;DHT22;15961;54.678;9.110;2022-12-18T07:04:37;-5.70;99.90
28823;DHT22;15961;54.678;9.110;2022-12-18T07:07:03;-5.80;99.90
28823;DHT22;15961;54.678;9.110;2022-12-18T07:09:28;-5.90;99.90
28823;DHT22;15961;54.678;9.110;2022-12-18T07:11:54;-5.90;99.90
28823;DHT22;15961;54.678;9.110;2022-12-18T07:14:19;-6.10;99.90
28823;DHT22;15961;54.678;9.110;2022-12-18T07:16:45;-6.20;99.90
28823;DHT22;15961;54.678;9.110;2022-12-18T07:19:10;-6.30;99.90
28823;DHT22;15961;54.678;9.110;2022-12-18T07:21:36;-6.30;99.90
28823;DHT22;15961;54.678;9.110;2022-12-18T07:24:02;-6.40;99.90
28823;DHT22;15961;54.678;9.110;2022-12-18T07:26:27;-6.50;99.90
28823;DHT22;15961;54.678;9.110;2022-12-18T07:28:55;-6.60;99.90
28823;DHT22;15961;54.678;9.110;2022-12-18T07:31:22;-6.60;99.90
28823;DHT22;15961;54.678;9.110;2022-12-18T07:33:49;-6.60;99.90
28823;DHT22;15961;54.678;9.110;2022-12-18T07:36:15;-6.60;99.90
28823;DHT22;15961;54.678;9.110;2022-12-18T07:38:41;-6.60;99.90
28823;DHT22;15961;54.678;9.110;2022-12-18T07:41:11;-6.60;99.90
28823;DHT22;15961;54.678;9.110;2022-12-18T07:43:37;-6.60;99.90
28823;DHT22;15961;54.678;9.110;2022-12-18T07:46:03;-6.70;99.90
28823;DHT22;15961;54.678;9.110;2022-12-18T07:48:29;-6.70;99.90
28823;DHT22;15961;54.678;9.110;2022-12-18T07:51:03;-6.70;99.90
28823;DHT22;15961;54.678;9.110;2022-12-18T07:53:30;-6.70;99.90
28823;DHT22;15961;54.678;9.110;2022-12-18T07:56:00;-6.80;99.90
28823;DHT22;15961;54.678;9.110;2022-12-18T07:58:27;-6.70;99.90
28823;DHT22;15961;54.678;9.110;2022-12-18T08:00:53;-6.60;99.90
28823;DHT22;15961;54.678;9.110;2022-12-18T08:03:19;-6.60;99.90
28823;DHT22;15961;54.678;9.110;2022-12-18T08:05:45;-6.60;99.90
28823;DHT22;15961;54.678;9.110;2022-12-18T08:08:10;-6.50;99.90
28823;DHT22;15961;54.678;9.110;2022-12-18T08:10:37;-6.50;99.90
28823;DHT22;15961;54.678;9.110;2022-12-18T08:13:03;-6.50;99.90
28823;DHT22;15961;54.678;9.110;2022-12-18T08:15:29;-6.50;99.90
28823;DHT22;15961;54.678;9.110;2022-12-18T08:17:57;-6.40;99.90
28823;DHT22;15961;54.678;9.110;2022-12-18T08:20:23;-6.40;99.90
28823;DHT22;15961;54.678;9.110;2022-12-18T08:22:48;-6.30;99.90
28823;DHT22;15961;54.678;9.110;2022-12-18T08:25:14;-6.30;99.90
28823;DHT22;15961;54.678;9.110;2022-12-18T08:27:39;-6.20;99.90
28823;DHT22;15961;54.678;9.110;2022-12-18T08:30:05;-6.20;99.90
28823;DHT22;15961;54.678;9.110;2022-12-18T08:32:31;-6.20;99.90
28823;DHT22;15961;54.678;9.110;2022-12-18T08:34:58;-6.10;99.90
28823;DHT22;15961;54.678;9.110;2022-12-18T08:37:23;-6.00;99.90
28823;DHT22;15961;54.678;9.110;2022-12-18T08:39:49;-6.00;99.90
28823;DHT22;15961;54.678;9.110;2022-12-18T08:42:15;-6.00;99.90
28823;DHT22;15961;54.678;9.110;2022-12-18T08:44:59;-5.90;99.90
28823;DHT22;15961;54.678;9.110;2022-12-18T08:47:24;-5.90;99.90
28823;DHT22;15961;54.678;9.110;2022-12-18T08:49:51;-5.80;99.90
28823;DHT22;15961;54.678;9.110;2022-12-18T08:52:17;-5.80;99.90
28823;DHT22;15961;54.678;9.110;2022-12-18T08:54:42;-5.70;99.90
28823;DHT22;15961;54.678;9.110;2022-12-18T08:57:08;-5.70;99.90
28823;DHT22;15961;54.678;9.110;2022-12-18T08:59:33;-5.60;99.90
28823;DHT22;15961;54.678;9.110;2022-12-18T09:01:59;-5.60;99.90
28823;DHT22;15961;54.678;9.110;2022-12-18T09:04:24;-5.60;99.90
28823;DHT22;15961;54.678;9.110;2022-12-18T09:06:50;-5.50;99.90
28823;DHT22;15961;54.678;9.110;2022-12-18T09:09:15;-5.50;99.90
28823;DHT22;15961;54.678;9.110;2022-12-18T09:11:41;-5.40;99.90
28823;DHT22;15961;54.678;9.110;2022-12-18T09:14:06;-5.40;99.90
28823;DHT22;15961;54.678;9.110;2022-12-18T09:16:32;-5.30;99.90
28823;DHT22;15961;54.678;9.110;2022-12-18T09:19:01;-5.30;99.90
28823;DHT22;15961;54.678;9.110;2022-12-18T09:21:30;-5.30;99.90
28823;DHT22;15961;54.678;9.110;2022-12-18T09:23:56;-5.30;99.90
28823;DHT22;15961;54.678;9.110;2022-12-18T09:26:23;-5.30;99.90
28823;DHT22;15961;54.678;9.110;2022-12-18T09:28:49;-5.30;99.90
28823;DHT22;15961;54.678;9.110;2022-12-18T09:31:17;-5.30;99.90
28823;DHT22;15961;54.678;9.110;2022-12-18T09:33:43;-5.30;99.90
28823;DHT22;15961;54.678;9.110;2022-12-18T09:36:13;-5.30;99.90
28823;DHT22;15961;54.678;9.110;2022-12-18T09:38:38;-5.20;99.90
28823;DHT22;15961;54.678;9.110;2022-12-18T09:41:33;-5.20;99.90
28823;DHT22;15961;54.678;9.110;2022-12-18T09:47:15;-5.00;99.90
28823;DHT22;15961;54.678;9.110;2022-12-18T09:49:45;-5.00;99.90
28823;DHT22;15961;54.678;9.110;2022-12-18T09:52:16;-5.10;99.90
28823;DHT22;15961;54.678;9.110;2022-12-18T09:55:28;-5.10;99.90
28823;DHT22;15961;54.678;9.110;2022-12-18T09:57:36;-5.00;99.90
28823;DHT22;15961;54.678;9.110;2022-12-18T10:00:17;-4.90;99.90
28823;DHT22;15961;54.678;9.110;2022-12-18T10:02:44;-4.80;99.90
28823;DHT22;15961;54.678;9.110;2022-12-18T10:08:02;-4.50;99.90
28823;DHT22;15961;54.678;9.110;2022-12-18T10:18:21;-4.10;99.90
28823;DHT22;15961;54.678;9.110;2022-12-18T10:21:09;-4.00;99.90
28823;DHT22;15961;54.678;9.110;2022-12-18T10:24:03;-4.00;99.90
28823;DHT22;15961;54.678;9.110;2022-12-18T10:26:34;-4.00;99.90
28823;DHT22;15961;54.678;9.110;2022-12-18T10:29:00;-4.00;99.90
28823;DHT22;15961;54.678;9.110;2022-12-18T10:31:26;-4.00;99.90
28823;DHT22;15961;54.678;9.110;2022-12-18T10:33:54;-4.00;99.90
28823;DHT22;15961;54.678;9.110;2022-12-18T10:36:20;-4.00;99.90
28823;DHT22;15961;54.678;9.110;2022-12-18T10:38:46;-4.10;99.90
28823;DHT22;15961;54.678;9.110;2022-12-18T10:43:44;-3.90;99.90
28823;DHT22;15961;54.678;9.110;2022-12-18T10:51:20;-3.80;99.90
28823;DHT22;15961;54.678;9.110;2022-12-18T10:54:01;-3.80;99.90
28823;DHT22;15961;54.678;9.110;2022-12-18T10:56:29;-3.70;99.90
28823;DHT22;15961;54.678;9.110;2022-12-18T10:58:58;-3.60;99.90
28823;DHT22;15961;54.678;9.110;2022-12-18T11:01:23;-3.60;99.90
28823;DHT22;15961;54.678;9.110;2022-12-18T11:06:23;-3.50;99.90
28823;DHT22;15961;54.678;9.110;2022-12-18T11:09:04;-3.60;99.90
28823;DHT22;15961;54.678;9.110;2022-12-18T11:11:32;-3.60;99.90
28823;DHT22;15961;54.678;9.110;2022-12-18T11:14:19;-3.60;99.90
28823;DHT22;15961;54.678;9.110;2022-12-18T11:16:47;-3.60;99.90
28823;DHT22;15961;54.678;9.110;2022-12-18T11:19:34;-3.60;99.90
28823;DHT22;15961;54.678;9.110;2022-12-18T11:22:17;-3.60;99.90
28823;DHT22;15961;54.678;9.110;2022-12-18T11:25:03;-3.60;99.90
28823;DHT22;15961;54.678;9.110;2022-12-18T11:27:30;-3.60;99.90
28823;DHT22;15961;54.678;9.110;2022-12-18T11:30:23;-3.50;99.90
28823;DHT22;15961;54.678;9.110;2022-12-18T11:35:34;-3.50;99.90
28823;DHT22;15961;54.678;9.110;2022-12-18T11:38:17;-3.50;99.90
28823;DHT22;15961;54.678;9.110;2022-12-18T11:40:49;-3.50;99.90
28823;DHT22;15961;54.678;9.110;2022-12-18T11:43:32;-3.40;99.90
28823;DHT22;15961;54.678;9.110;2022-12-18T11:46:09;-3.40;99.90
28823;DHT22;15961;54.678;9.110;2022-12-18T11:48:44;-3.30;99.90
28823;DHT22;15961;54.678;9.110;2022-12-18T11:51:25;-3.30;99.90
28823;DHT22;15961;54.678;9.110;2022-12-18T11:53:52;-3.30;99.90
28823;DHT22;15961;54.678;9.110;2022-12-18T11:56:35;-3.30;99.90
28823;DHT22;15961;54.678;9.110;2022-12-18T12:07:21;-3.40;99.90
28823;DHT22;15961;54.678;9.110;2022-12-18T12:12:29;-3.40;99.90
28823;DHT22;15961;54.678;9.110;2022-12-18T12:21:21;-3.30;99.90
28823;DHT22;15961;54.678;9.110;2022-12-18T12:26:49;-3.30;99.90
28823;DHT22;15961;54.678;9.110;2022-12-18T12:38:04;-3.10;99.90
28823;DHT22;15961;54.678;9.110;2022-12-18T12:40:35;-3.10;99.90
28823;DHT22;15961;54.678;9.110;2022-12-18T12:43:35;-3.10;99.90
28823;DHT22;15961;54.678;9.110;2022-12-18T12:49:01;-2.90;99.90
28823;DHT22;15961;54.678;9.110;2022-12-18T12:51:32;-2.90;99.90
28823;DHT22;15961;54.678;9.110;2022-12-18T12:53:59;-2.80;99.90
28823;DHT22;15961;54.678;9.110;2022-12-18T12:59:28;-3.10;99.90
28823;DHT22;15961;54.678;9.110;2022-12-18T13:02:48;-3.10;99.90
28823;DHT22;15961;54.678;9.110;2022-12-18T13:05:06;-3.00;99.90
28823;DHT22;15961;54.678;9.110;2022-12-18T13:07:39;-3.10;99.90
28823;DHT22;15961;54.678;9.110;2022-12-18T13:13:16;-3.30;99.90
28823;DHT22;15961;54.678;9.110;2022-12-18T13:15:48;-3.40;99.90
28823;DHT22;15961;54.678;9.110;2022-12-18T13:18:23;-3.40;99.90
28823;DHT22;15961;54.678;9.110;2022-12-18T13:25:54;-3.60;99.90
28823;DHT22;15961;54.678;9.110;2022-12-18T13:36:41;-4.10;99.90
28823;DHT22;15961;54.678;9.110;2022-12-18T13:39:33;-4.20;99.90
28823;DHT22;15961;54.678;9.110;2022-12-18T13:44:35;-4.30;99.90
28823;DHT22;15961;54.678;9.110;2022-12-18T13:47:04;-4.40;99.90
28823;DHT22;15961;54.678;9.110;2022-12-18T13:49:43;-4.40;99.90
28823;DHT22;15961;54.678;9.110;2022-12-18T13:52:33;-4.50;99.90
28823;DHT22;15961;54.678;9.110;2022-12-18T13:55:02;-4.50;99.90
28823;DHT22;15961;54.678;9.110;2022-12-18T13:57:36;-4.60;99.90
28823;DHT22;15961;54.678;9.110;2022-12-18T14:00:28;-4.70;99.90
28823;DHT22;15961;54.678;9.110;2022-12-18T14:02:55;-4.70;99.90
28823;DHT22;15961;54.678;9.110;2022-12-18T14:05:26;-4.70;99.90
28823;DHT22;15961;54.678;9.110;2022-12-18T14:07:53;-4.70;99.90
28823;DHT22;15961;54.678;9.110;2022-12-18T14:10:19;-4.80;99.90
28823;DHT22;15961;54.678;9.110;2022-12-18T14:12:47;-4.90;99.90
28823;DHT22;15961;54.678;9.110;2022-12-18T14:15:33;-4.90;99.90
28823;DHT22;15961;54.678;9.110;2022-12-18T14:20:49;-4.90;99.90
28823;DHT22;15961;54.678;9.110;2022-12-18T14:23:41;-4.90;99.90
28823;DHT22;15961;54.678;9.110;2022-12-18T14:26:20;-4.90;99.90
28823;DHT22;15961;54.678;9.110;2022-12-18T14:28:46;-4.90;99.90
28823;DHT22;15961;54.678;9.110;2022-12-18T14:31:26;-4.90;99.90
28823;DHT22;15961;54.678;9.110;2022-12-18T14:33:52;-4.90;99.90
28823;DHT22;15961;54.678;9.110;2022-12-18T14:36:21;-4.90;99.90
28823;DHT22;15961;54.678;9.110;2022-12-18T14:38:58;-4.90;99.90
28823;DHT22;15961;54.678;9.110;2022-12-18T14:41:25;-4.90;99.90
28823;DHT22;15961;54.678;9.110;2022-12-18T14:43:53;-4.90;99.90
28823;DHT22;15961;54.678;9.110;2022-12-18T14:46:37;-5.00;99.90
28823;DHT22;15961;54.678;9.110;2022-12-18T14:49:18;-5.00;99.90
28823;DHT22;15961;54.678;9.110;2022-12-18T14:52:23;-5.00;99.90
28823;DHT22;15961;54.678;9.110;2022-12-18T14:54:52;-5.00;99.90
28823;DHT22;15961;54.678;9.110;2022-12-18T14:57:25;-5.10;99.90
28823;DHT22;15961;54.678;9.110;2022-12-18T15:00:10;-5.10;99.90
28823;DHT22;15961;54.678;9.110;2022-12-18T15:02:40;-5.20;99.90
28823;DHT22;15961;54.678;9.110;2022-12-18T15:05:21;-5.20;99.90
28823;DHT22;15961;54.678;9.110;2022-12-18T15:07:51;-5.20;99.90
28823;DHT22;15961;54.678;9.110;2022-12-18T15:17:59;-5.20;99.90
28823;DHT22;15961;54.678;9.110;2022-12-18T15:20:25;-5.20;99.90
28823;DHT22;15961;54.678;9.110;2022-12-18T15:22:51;-5.20;99.90
28823;DHT22;15961;54.678;9.110;2022-12-18T15:25:26;-5.20;99.90
28823;DHT22;15961;54.678;9.110;2022-12-18T15:27:53;-5.20;99.90
28823;DHT22;15961;54.678;9.110;2022-12-18T15:30:22;-5.20;99.90
28823;DHT22;15961;54.678;9.110;2022-12-18T15:32:48;-5.20;99.90
28823;DHT22;15961;54.678;9.110;2022-12-18T15:35:17;-5.10;99.90
28823;DHT22;15961;54.678;9.110;2022-12-18T15:37:43;-5.10;99.90
28823;DHT22;15961;54.678;9.110;2022-12-18T15:40:20;-5.00;99.90
28823;DHT22;15961;54.678;9.110;2022-12-18T15:42:47;-5.00;99.90
28823;DHT22;15961;54.678;9.110;2022-12-18T15:45:32;-5.00;99.90
28823;DHT22;15961;54.678;9.110;2022-12-18T15:47:58;-4.90;99.90
28823;DHT22;15961;54.678;9.110;2022-12-18T15:50:24;-4.90;99.90
28823;DHT22;15961;54.678;9.110;2022-12-18T15:52:52;-4.80;99.90
28823;DHT22;15961;54.678;9.110;2022-12-18T15:55:20;-4.70;99.90
28823;DHT22;15961;54.678;9.110;2022-12-18T15:58:06;-4.70;99.90
28823;DHT22;15961;54.678;9.110;2022-12-18T16:00:34;-4.60;99.90
28823;DHT22;15961;54.678;9.110;2022-12-18T16:03:00;-4.50;99.90
28823;DHT22;15961;54.678;9.110;2022-12-18T16:05:27;-4.40;99.90
28823;DHT22;15961;54.678;9.110;2022-12-18T16:07:52;-4.40;99.90
28823;DHT22;15961;54.678;9.110;2022-12-18T16:10:19;-4.30;99.90
28823;DHT22;15961;54.678;9.110;2022-12-18T16:12:44;-4.30;99.90
28823;DHT22;15961;54.678;9.110;2022-12-18T16:15:13;-4.30;99.90
28823;DHT22;15961;54.678;9.110;2022-12-18T16:17:43;-4.30;99.90
28823;DHT22;15961;54.678;9.110;2022-12-18T16:20:13;-4.30;99.90
28823;DHT22;15961;54.678;9.110;2022-12-18T16:22:40;-4.30;99.90
28823;DHT22;15961;54.678;9.110;2022-12-18T16:25:30;-4.30;99.90
28823;DHT22;15961;54.678;9.110;2022-12-18T16:27:56;-4.40;99.90
28823;DHT22;15961;54.678;9.110;2022-12-18T16:30:27;-4.40;99.90
28823;DHT22;15961;54.678;9.110;2022-12-18T16:32:57;-4.50;99.90
28823;DHT22;15961;54.678;9.110;2022-12-18T16:35:25;-4.50;99.90
28823;DHT22;15961;54.678;9.110;2022-12-18T16:37:51;-4.40;99.90
28823;DHT22;15961;54.678;9.110;2022-12-18T16:40:17;-4.40;99.90
28823;DHT22;15961;54.678;9.110;2022-12-18T16:42:45;-4.40;99.90
28823;DHT22;15961;54.678;9.110;2022-12-18T16:45:16;-4.40;99.90
28823;DHT22;15961;54.678;9.110;2022-12-18T16:47:42;-4.40;99.90
28823;DHT22;15961;54.678;9.110;2022-12-18T16:50:08;-4.40;99.90
28823;DHT22;15961;54.678;9.110;2022-12-18T16:52:34;-4.40;99.90
28823;DHT22;15961;54.678;9.110;2022-12-18T16:55:00;-4.40;99.90
28823;DHT22;15961;54.678;9.110;2022-12-18T16:57:25;-4.30;99.90
28823;DHT22;15961;54.678;9.110;2022-12-18T16:59:51;-4.30;99.90
28823;DHT22;15961;54.678;9.110;2022-12-18T17:02:26;-4.30;99.90
28823;DHT22;15961;54.678;9.110;2022-12-18T17:04:55;-4.20;99.90
28823;DHT22;15961;54.678;9.110;2022-12-18T17:07:21;-4.20;99.90
28823;DHT22;15961;54.678;9.110;2022-12-18T17:09:47;-4.10;99.90
28823;DHT22;15961;54.678;9.110;2022-12-18T17:12:14;-4.10;99.90
28823;DHT22;15961;54.678;9.110;2022-12-18T17:14:40;-4.10;99.90
28823;DHT22;15961;54.678;9.110;2022-12-18T17:17:05;-4.00;99.90
28823;DHT22;15961;54.678;9.110;2022-12-18T17:19:31;-4.00;99.90
28823;DHT22;15961;54.678;9.110;2022-12-18T17:21:58;-4.00;99.90
28823;DHT22;15961;54.678;9.110;2022-12-18T17:24:24;-4.00;99.90
28823;DHT22;15961;54.678;9.110;2022-12-18T17:26:49;-3.90;99.90
28823;DHT22;15961;54.678;9.110;2022-12-18T17:29:17;-3.90;99.90
28823;DHT22;15961;54.678;9.110;2022-12-18T17:31:45;-3.90;99.90